createdAt,value
2018-08-03T00:00:47.166Z,1017.06
2018-08-03T00:01:47.157Z,1017.06
2018-08-03T00:02:47.158Z,1017.07
2018-08-03T00:03:47.135Z,1017.04
2018-08-03T00:04:47.090Z,1017.06
2018-08-03T00:05:47.075Z,1017.05
2018-08-03T00:06:47.049Z,1017.04
2018-08-03T00:07:47.018Z,1017.00
2018-08-03T00:08:46.997Z,1017.01
2018-08-03T00:09:46.991Z,1016.95
2018-08-03T00:10:46.983Z,1017.00
2018-08-03T00:11:46.933Z,1016.98
2018-08-03T00:12:46.914Z,1016.97
2018-08-03T00:13:46.925Z,1016.95
2018-08-03T00:14:46.896Z,1016.97
2018-08-03T00:15:46.857Z,1016.97
2018-08-03T00:16:46.846Z,1016.97
2018-08-03T00:17:46.830Z,1016.94
2018-08-03T00:18:46.796Z,1016.94
2018-08-03T00:19:46.769Z,1016.97
2018-08-03T00:20:46.750Z,1016.98
2018-08-03T00:21:46.762Z,1016.95
2018-08-03T00:22:46.700Z,1016.94
2018-08-03T00:23:46.694Z,1016.90
2018-08-03T00:24:46.682Z,1016.96
2018-08-03T00:25:46.638Z,1016.95
2018-08-03T00:26:46.620Z,1016.93
2018-08-03T00:27:46.627Z,1016.98
2018-08-03T00:28:46.596Z,1016.93
2018-08-03T00:29:46.555Z,1016.91
2018-08-03T00:30:46.543Z,1016.97
2018-08-03T00:31:46.541Z,1016.91
2018-08-03T00:32:46.511Z,1016.88
2018-08-03T00:33:46.479Z,1016.88
2018-08-03T00:34:46.452Z,1016.88
2018-08-03T00:35:46.601Z,1016.89
2018-08-03T00:36:46.418Z,1016.89
2018-08-03T00:37:46.392Z,1016.87
2018-08-03T00:38:46.380Z,1016.87
2018-08-03T00:39:46.368Z,1016.85
2018-08-03T00:40:46.327Z,1016.86
2018-08-03T00:41:46.314Z,1016.85
2018-08-03T00:42:46.297Z,1016.88
2018-08-03T00:43:46.299Z,1016.88
2018-08-03T00:44:46.260Z,1016.86
2018-08-03T00:45:46.221Z,1016.88
2018-08-03T00:46:46.230Z,1016.91
2018-08-03T00:47:46.178Z,1016.86
2018-08-03T00:48:46.168Z,1016.90
2018-08-03T00:49:46.164Z,1016.87
2018-08-03T00:50:46.137Z,1016.88
2018-08-03T00:51:46.106Z,1016.85
2018-08-03T00:52:46.072Z,1016.83
2018-08-03T00:53:46.099Z,1016.87
2018-08-03T00:54:46.038Z,1016.87
2018-08-03T00:55:46.005Z,1016.86
2018-08-03T00:56:46.005Z,1016.87
2018-08-03T00:57:46.013Z,1016.89
2018-08-03T00:58:45.945Z,1016.89
2018-08-03T00:59:45.929Z,1016.87
2018-08-03T01:00:45.936Z,1016.87
2018-08-03T01:01:45.876Z,1016.88
2018-08-03T01:02:45.864Z,1016.88
2018-08-03T01:03:45.842Z,1016.86
2018-08-03T01:04:45.850Z,1016.88
2018-08-03T01:05:45.803Z,1016.92
2018-08-03T01:06:45.784Z,1016.89
2018-08-03T01:07:45.760Z,1016.93
2018-08-03T01:08:45.766Z,1016.94
2018-08-03T01:09:45.708Z,1016.90
2018-08-03T01:10:45.694Z,1016.92
2018-08-03T01:11:45.679Z,1016.92
2018-08-03T01:12:45.656Z,1016.90
2018-08-03T01:13:45.627Z,1016.88
2018-08-03T01:14:45.617Z,1016.85
2018-08-03T01:15:45.625Z,1016.85
2018-08-03T01:16:45.576Z,1016.87
2018-08-03T01:17:45.539Z,1016.85
2018-08-03T01:18:45.542Z,1016.88
2018-08-03T01:19:45.535Z,1016.85
2018-08-03T01:20:45.475Z,1016.87
2018-08-03T01:21:45.473Z,1016.84
2018-08-03T01:22:45.457Z,1016.82
2018-08-03T01:23:45.443Z,1016.82
2018-08-03T01:24:45.411Z,1016.80
2018-08-03T01:25:45.367Z,1016.81
2018-08-03T01:26:45.358Z,1016.82
2018-08-03T01:27:45.377Z,1016.81
2018-08-03T01:28:45.311Z,1016.80
2018-08-03T01:29:45.299Z,1016.80
2018-08-03T01:30:45.269Z,1016.82
2018-08-03T01:31:45.240Z,1016.83
2018-08-03T01:32:45.225Z,1016.83
2018-08-03T01:33:45.219Z,1016.80
2018-08-03T01:34:45.221Z,1016.82
2018-08-03T01:35:45.165Z,1016.83
2018-08-03T01:36:45.156Z,1016.76
2018-08-03T01:37:45.148Z,1016.83
2018-08-03T01:38:45.090Z,1016.81
2018-08-03T01:39:45.088Z,1016.81
2018-08-03T01:40:45.078Z,1016.81
2018-08-03T01:41:45.029Z,1016.80
2018-08-03T01:42:45.011Z,1016.78
2018-08-03T01:43:44.980Z,1016.79
2018-08-03T01:44:44.969Z,1016.80
2018-08-03T01:45:44.950Z,1016.77
2018-08-03T01:46:44.928Z,1016.74
2018-08-03T01:47:44.927Z,1016.75
2018-08-03T01:48:44.875Z,1016.72
2018-08-03T01:49:44.856Z,1016.72
2018-08-03T01:50:44.860Z,1016.73
2018-08-03T01:51:44.827Z,1016.72
2018-08-03T01:52:44.786Z,1016.72
2018-08-03T01:53:44.770Z,1016.71
2018-08-03T01:54:44.765Z,1016.65
2018-08-03T01:55:44.737Z,1016.67
2018-08-03T01:56:44.720Z,1016.64
2018-08-03T01:57:44.689Z,1016.66
2018-08-03T01:58:44.667Z,1016.66
2018-08-03T01:59:44.648Z,1016.63
2018-08-03T02:00:44.615Z,1016.67
2018-08-03T02:01:45.161Z,1016.68
2018-08-03T02:02:44.594Z,1016.67
2018-08-03T02:03:44.546Z,1016.65
2018-08-03T02:04:44.533Z,1016.67
2018-08-03T02:05:44.517Z,1016.64
2018-08-03T02:06:44.516Z,1016.63
2018-08-03T02:07:44.478Z,1016.63
2018-08-03T02:08:44.446Z,1016.64
2018-08-03T02:09:44.429Z,1016.61
2018-08-03T02:10:44.406Z,1016.63
2018-08-03T02:11:44.383Z,1016.64
2018-08-03T02:12:44.364Z,1016.62
2018-08-03T02:13:44.336Z,1016.63
2018-08-03T02:14:44.328Z,1016.61
2018-08-03T02:15:44.298Z,1016.68
2018-08-03T02:16:44.288Z,1016.66
2018-08-03T02:17:44.306Z,1016.68
2018-08-03T02:18:44.240Z,1016.68
2018-08-03T02:19:44.224Z,1016.68
2018-08-03T02:20:44.188Z,1016.68
2018-08-03T02:21:44.171Z,1016.67
2018-08-03T02:22:44.145Z,1016.66
2018-08-03T02:23:44.130Z,1016.65
2018-08-03T02:24:44.099Z,1016.64
2018-08-03T02:25:44.070Z,1016.67
2018-08-03T02:26:44.064Z,1016.69
2018-08-03T02:27:44.046Z,1016.66
2018-08-03T02:28:44.015Z,1016.68
2018-08-03T02:29:43.985Z,1016.71
2018-08-03T02:30:44.060Z,1016.72
2018-08-03T02:31:43.943Z,1016.72
2018-08-03T02:32:43.928Z,1016.71
2018-08-03T02:33:43.911Z,1016.76
2018-08-03T02:34:43.912Z,1016.73
2018-08-03T02:35:43.855Z,1016.74
2018-08-03T02:36:43.842Z,1016.74
2018-08-03T02:37:43.851Z,1016.74
2018-08-03T02:38:43.837Z,1016.73
2018-08-03T02:39:43.804Z,1016.74
2018-08-03T02:40:43.753Z,1016.75
2018-08-03T02:41:43.758Z,1016.75
2018-08-03T02:42:43.736Z,1016.78
2018-08-03T02:43:43.683Z,1016.76
2018-08-03T02:44:43.669Z,1016.79
2018-08-03T02:45:43.660Z,1016.79
2018-08-03T02:46:43.626Z,1016.79
2018-08-03T02:47:43.611Z,1016.78
2018-08-03T02:48:43.582Z,1016.82
2018-08-03T02:49:43.551Z,1016.80
2018-08-03T02:50:43.530Z,1016.77
2018-08-03T02:51:43.520Z,1016.80
2018-08-03T02:52:43.492Z,1016.79
2018-08-03T02:53:43.475Z,1016.79
2018-08-03T02:54:43.443Z,1016.80
2018-08-03T02:55:43.437Z,1016.77
2018-08-03T02:56:43.434Z,1016.80
2018-08-03T02:57:43.377Z,1016.79
2018-08-03T02:58:43.369Z,1016.78
2018-08-03T02:59:43.348Z,1016.76
2018-08-03T03:00:43.321Z,1016.78
2018-08-03T03:01:43.301Z,1016.77
2018-08-03T03:02:43.277Z,1016.78
2018-08-03T03:03:43.249Z,1016.75
2018-08-03T03:04:43.229Z,1016.78
2018-08-03T03:05:43.201Z,1016.76
2018-08-03T03:06:43.199Z,1016.76
2018-08-03T03:07:43.192Z,1016.76
2018-08-03T03:08:43.145Z,1016.80
2018-08-03T03:09:43.134Z,1016.77
2018-08-03T03:10:43.138Z,1016.77
2018-08-03T03:11:43.080Z,1016.83
2018-08-03T03:12:43.055Z,1016.82
2018-08-03T03:13:43.043Z,1016.83
2018-08-03T03:14:43.024Z,1016.85
2018-08-03T03:15:42.988Z,1016.84
2018-08-03T03:16:42.969Z,1016.83
2018-08-03T03:17:42.943Z,1016.88
2018-08-03T03:18:42.928Z,1016.90
2018-08-03T03:19:42.940Z,1016.88
2018-08-03T03:20:42.903Z,1016.90
2018-08-03T03:21:42.886Z,1016.89
2018-08-03T03:22:42.834Z,1016.88
2018-08-03T03:23:42.827Z,1016.91
2018-08-03T03:24:42.813Z,1016.88
2018-08-03T03:25:42.770Z,1016.92
2018-08-03T03:26:42.749Z,1016.86
2018-08-03T03:27:42.743Z,1016.87
2018-08-03T03:28:42.740Z,1016.92
2018-08-03T03:29:42.680Z,1016.89
2018-08-03T03:30:42.670Z,1016.92
2018-08-03T03:31:42.653Z,1016.91
2018-08-03T03:32:42.692Z,1016.88
2018-08-03T03:33:42.601Z,1016.89
2018-08-03T03:34:42.584Z,1016.93
2018-08-03T03:35:42.586Z,1016.92
2018-08-03T03:36:42.543Z,1016.93
2018-08-03T03:37:42.506Z,1016.92
2018-08-03T03:38:42.539Z,1016.91
2018-08-03T03:39:42.449Z,1016.89
2018-08-03T03:40:42.453Z,1016.93
2018-08-03T03:41:42.419Z,1016.92
2018-08-03T03:42:42.438Z,1016.94
2018-08-03T03:43:42.376Z,1016.94
2018-08-03T03:44:42.352Z,1016.97
2018-08-03T03:45:42.339Z,1016.92
2018-08-03T03:46:42.305Z,1016.95
2018-08-03T03:47:42.291Z,1016.95
2018-08-03T03:48:42.307Z,1016.91
2018-08-03T03:49:42.267Z,1016.88
2018-08-03T03:50:42.224Z,1016.90
2018-08-03T03:51:42.194Z,1016.85
2018-08-03T03:52:42.161Z,1016.88
2018-08-03T03:53:42.142Z,1016.88
2018-08-03T03:54:42.129Z,1016.86
2018-08-03T03:55:42.122Z,1016.87
2018-08-03T03:56:42.088Z,1016.89
2018-08-03T03:57:42.047Z,1016.91
2018-08-03T03:58:42.047Z,1016.89
2018-08-03T03:59:42.042Z,1016.87
2018-08-03T04:00:41.994Z,1016.88
2018-08-03T04:01:41.980Z,1016.88
2018-08-03T04:02:41.944Z,1016.86
2018-08-03T04:03:41.919Z,1016.87
2018-08-03T04:04:41.904Z,1016.86
2018-08-03T04:05:41.887Z,1016.87
2018-08-03T04:06:41.860Z,1016.89
2018-08-03T04:07:41.843Z,1016.88
2018-08-03T04:08:41.809Z,1016.88
2018-08-03T04:09:41.808Z,1016.90
2018-08-03T04:10:41.780Z,1016.90
2018-08-03T04:11:41.741Z,1016.88
2018-08-03T04:12:41.747Z,1016.90
2018-08-03T04:13:41.692Z,1016.88
2018-08-03T04:14:41.682Z,1016.88
2018-08-03T04:15:41.652Z,1016.87
2018-08-03T04:16:41.636Z,1016.90
2018-08-03T04:17:41.607Z,1016.86
2018-08-03T04:18:41.583Z,1016.85
2018-08-03T04:19:41.604Z,1016.89
2018-08-03T04:20:41.535Z,1016.83
2018-08-03T04:21:41.525Z,1016.83
2018-08-03T04:22:41.510Z,1016.79
2018-08-03T04:23:41.493Z,1016.79
2018-08-03T04:24:41.451Z,1016.81
2018-08-03T04:25:41.503Z,1016.81
2018-08-03T04:26:41.406Z,1016.81
2018-08-03T04:27:41.388Z,1016.81
2018-08-03T04:28:41.365Z,1016.82
2018-08-03T04:29:41.343Z,1016.79
2018-08-03T04:30:41.353Z,1016.78
2018-08-03T04:31:41.307Z,1016.75
2018-08-03T04:32:41.318Z,1016.81
2018-08-03T04:33:41.254Z,1016.76
2018-08-03T04:34:41.224Z,1016.75
2018-08-03T04:35:41.236Z,1016.79
2018-08-03T04:36:41.185Z,1016.79
2018-08-03T04:37:41.160Z,1016.80
2018-08-03T04:38:41.140Z,1016.82
2018-08-03T04:39:41.132Z,1016.83
2018-08-03T04:40:41.116Z,1016.80
2018-08-03T04:41:41.075Z,1016.83
2018-08-03T04:42:41.194Z,1016.86
2018-08-03T04:43:41.126Z,1016.89
2018-08-03T04:44:41.137Z,1016.86
2018-08-03T04:45:40.994Z,1016.90
2018-08-03T04:46:41.074Z,1016.86
2018-08-03T04:47:40.948Z,1016.85
2018-08-03T04:48:41.027Z,1016.88
2018-08-03T04:49:40.901Z,1016.85
2018-08-03T04:50:40.956Z,1016.89
2018-08-03T04:51:40.929Z,1016.89
2018-08-03T04:52:40.893Z,1016.85
2018-08-03T04:53:40.849Z,1016.86
2018-08-03T04:54:40.796Z,1016.86
2018-08-03T04:55:40.774Z,1016.88
2018-08-03T04:56:40.851Z,1016.86
2018-08-03T04:57:40.734Z,1016.85
2018-08-03T04:58:40.694Z,1016.89
2018-08-03T04:59:40.736Z,1016.85
2018-08-03T05:00:40.726Z,1016.91
2018-08-03T05:01:40.735Z,1016.88
2018-08-03T05:02:40.673Z,1016.91
2018-08-03T05:03:40.582Z,1016.90
2018-08-03T05:04:40.648Z,1016.91
2018-08-03T05:05:40.572Z,1016.90
2018-08-03T05:06:40.581Z,1016.94
2018-08-03T05:07:40.490Z,1016.92
2018-08-03T05:08:40.471Z,1016.95
2018-08-03T05:09:40.509Z,1016.99
2018-08-03T05:10:40.504Z,1016.94
2018-08-03T05:11:40.519Z,1017.00
2018-08-03T05:12:40.518Z,1016.98
2018-08-03T05:13:40.416Z,1016.98
2018-08-03T05:14:40.380Z,1016.99
2018-08-03T05:15:40.422Z,1016.99
2018-08-03T05:16:40.368Z,1016.98
2018-08-03T05:17:40.355Z,1016.99
2018-08-03T05:18:40.336Z,1017.01
2018-08-03T05:19:40.250Z,1016.99
2018-08-03T05:20:40.275Z,1016.98
2018-08-03T05:21:40.187Z,1016.98
2018-08-03T05:22:40.223Z,1016.98
2018-08-03T05:23:40.179Z,1016.98
2018-08-03T05:24:40.193Z,1016.99
2018-08-03T05:25:40.095Z,1016.98
2018-08-03T05:26:40.150Z,1016.95
2018-08-03T05:27:40.120Z,1016.99
2018-08-03T05:28:40.098Z,1016.97
2018-08-03T05:29:40.019Z,1016.98
2018-08-03T05:30:40.080Z,1016.99
2018-08-03T05:31:40.051Z,1016.99
2018-08-03T05:32:39.974Z,1016.98
2018-08-03T05:33:39.953Z,1016.97
2018-08-03T05:34:39.972Z,1016.97
2018-08-03T05:35:39.877Z,1016.98
2018-08-03T05:36:39.874Z,1016.99
2018-08-03T05:37:39.914Z,1017.00
2018-08-03T05:38:39.816Z,1016.98
2018-08-03T05:39:39.888Z,1016.98
2018-08-03T05:40:39.793Z,1016.96
2018-08-03T05:41:39.839Z,1016.98
2018-08-03T05:42:39.743Z,1016.96
2018-08-03T05:43:39.703Z,1016.97
2018-08-03T05:44:39.688Z,1016.96
2018-08-03T05:45:39.755Z,1016.94
2018-08-03T05:46:39.716Z,1016.97
2018-08-03T05:47:39.712Z,1016.96
2018-08-03T05:48:39.723Z,1016.96
2018-08-03T05:49:40.361Z,1016.99
2018-08-03T05:50:39.689Z,1016.99
2018-08-03T05:51:39.573Z,1016.94
2018-08-03T05:52:39.566Z,1016.97
2018-08-03T05:53:39.607Z,1016.99
2018-08-03T05:54:39.481Z,1017.01
2018-08-03T05:55:39.499Z,1017.01
2018-08-03T05:56:39.434Z,1017.04
2018-08-03T05:57:39.437Z,1017.02
2018-08-03T05:58:39.444Z,1017.05
2018-08-03T05:59:39.553Z,1017.04
2018-08-03T06:00:39.464Z,1017.04
2018-08-03T06:01:39.517Z,1017.04
2018-08-03T06:02:39.403Z,1017.07
2018-08-03T06:03:39.329Z,1017.07
2018-08-03T06:04:39.376Z,1017.05
2018-08-03T06:05:39.208Z,1017.08
2018-08-03T06:06:39.201Z,1017.07
2018-08-03T06:07:39.190Z,1017.06
2018-08-03T06:08:39.154Z,1017.07
2018-08-03T06:09:39.150Z,1017.06
2018-08-03T06:10:39.120Z,1017.05
2018-08-03T06:11:39.086Z,1017.06
2018-08-03T06:12:39.086Z,1017.07
2018-08-03T06:13:39.020Z,1017.10
2018-08-03T06:14:39.013Z,1017.05
2018-08-03T06:15:39.009Z,1017.06
2018-08-03T06:16:38.955Z,1017.09
2018-08-03T06:17:39.070Z,1017.09
2018-08-03T06:18:38.984Z,1017.11
2018-08-03T06:19:39.031Z,1017.08
2018-08-03T06:20:39.043Z,1017.08
2018-08-03T06:21:38.872Z,1017.11
2018-08-03T06:22:38.861Z,1017.14
2018-08-03T06:23:38.819Z,1017.15
2018-08-03T06:24:38.791Z,1017.14
2018-08-03T06:25:38.812Z,1017.15
2018-08-03T06:26:39.109Z,1017.18
2018-08-03T06:27:38.776Z,1017.16
2018-08-03T06:28:38.699Z,1017.19
2018-08-03T06:29:38.747Z,1017.18
2018-08-03T06:30:38.672Z,1017.15
2018-08-03T06:31:38.644Z,1017.12
2018-08-03T06:32:38.650Z,1017.11
2018-08-03T06:33:38.597Z,1017.10
2018-08-03T06:34:38.771Z,1017.11
2018-08-03T06:35:38.676Z,1017.11
2018-08-03T06:36:38.560Z,1017.13
2018-08-03T06:37:38.549Z,1017.15
2018-08-03T06:38:39.152Z,1017.14
2018-08-03T06:39:38.565Z,1017.15
2018-08-03T06:40:38.521Z,1017.14
2018-08-03T06:41:38.418Z,1017.12
2018-08-03T06:42:38.904Z,1017.13
2018-08-03T06:43:38.480Z,1017.13
2018-08-03T06:44:38.392Z,1017.14
2018-08-03T06:45:38.436Z,1017.16
2018-08-03T06:46:38.444Z,1017.16
2018-08-03T06:47:38.419Z,1017.17
2018-08-03T06:48:38.376Z,1017.17
2018-08-03T06:49:38.380Z,1017.16
2018-08-03T06:50:38.902Z,1017.15
2018-08-03T06:51:38.673Z,1017.15
2018-08-03T06:52:41.840Z,1017.18
2018-08-03T06:53:38.235Z,1017.18
2018-08-03T06:54:38.738Z,1017.14
2018-08-03T06:55:38.156Z,1017.14
2018-08-03T06:56:38.110Z,1017.17
2018-08-03T06:57:38.320Z,1017.13
2018-08-03T06:58:38.103Z,1017.16
2018-08-03T06:59:38.097Z,1017.17
2018-08-03T07:00:38.051Z,1017.17
2018-08-03T07:01:38.773Z,1017.18
2018-08-03T07:02:38.062Z,1017.19
2018-08-03T07:03:37.964Z,1017.20
2018-08-03T07:04:37.953Z,1017.17
2018-08-03T07:05:37.982Z,1017.16
2018-08-03T07:06:37.921Z,1017.15
2018-08-03T07:07:38.288Z,1017.15
2018-08-03T07:08:37.886Z,1017.15
2018-08-03T07:09:37.847Z,1017.14
2018-08-03T07:10:37.816Z,1017.14
2018-08-03T07:11:37.807Z,1017.15
2018-08-03T07:12:37.774Z,1017.13
2018-08-03T07:13:37.768Z,1017.14
2018-08-03T07:14:37.802Z,1017.14
2018-08-03T07:15:37.733Z,1017.15
2018-08-03T07:16:37.708Z,1017.15
2018-08-03T07:17:37.695Z,1017.11
2018-08-03T07:18:37.685Z,1017.12
2018-08-03T07:19:37.649Z,1017.12
2018-08-03T07:20:37.658Z,1017.11
2018-08-03T07:21:37.686Z,1017.07
2018-08-03T07:22:37.583Z,1017.10
2018-08-03T07:23:37.560Z,1017.11
2018-08-03T07:24:37.554Z,1017.08
2018-08-03T07:25:37.529Z,1017.09
2018-08-03T07:26:37.507Z,1017.10
2018-08-03T07:27:37.487Z,1017.10
2018-08-03T07:28:37.467Z,1017.09
2018-08-03T07:29:37.468Z,1017.11
2018-08-03T07:30:37.424Z,1017.09
2018-08-03T07:31:37.446Z,1017.12
2018-08-03T07:32:37.412Z,1017.12
2018-08-03T07:33:37.366Z,1017.12
2018-08-03T07:34:37.351Z,1017.09
2018-08-03T07:35:37.319Z,1017.11
2018-08-03T07:36:37.333Z,1017.13
2018-08-03T07:37:37.288Z,1017.14
2018-08-03T07:38:37.294Z,1017.12
2018-08-03T07:39:37.248Z,1017.12
2018-08-03T07:40:37.236Z,1017.11
2018-08-03T07:41:37.213Z,1017.08
2018-08-03T07:42:37.202Z,1017.10
2018-08-03T07:43:37.219Z,1017.06
2018-08-03T07:44:37.204Z,1017.04
2018-08-03T07:45:37.142Z,1017.07
2018-08-03T07:46:37.114Z,1017.05
2018-08-03T07:47:37.096Z,1017.04
2018-08-03T07:48:37.071Z,1017.00
2018-08-03T07:49:37.058Z,1017.03
2018-08-03T07:50:37.035Z,1017.02
2018-08-03T07:51:37.051Z,1017.03
2018-08-03T07:52:37.049Z,1017.02
2018-08-03T07:53:36.992Z,1017.03
2018-08-03T07:54:36.959Z,1017.02
2018-08-03T07:55:36.945Z,1017.02
2018-08-03T07:56:36.932Z,1016.99
2018-08-03T07:57:36.940Z,1017.02
2018-08-03T07:58:36.883Z,1017.03
2018-08-03T07:59:36.867Z,1017.02
2018-08-03T08:00:36.852Z,1016.98
2018-08-03T08:01:36.826Z,1017.03
2018-08-03T08:02:36.859Z,1017.00
2018-08-03T08:03:36.795Z,1017.02
2018-08-03T08:04:36.775Z,1016.99
2018-08-03T08:05:36.769Z,1016.98
2018-08-03T08:06:36.740Z,1016.94
2018-08-03T08:07:36.742Z,1016.97
2018-08-03T08:08:36.708Z,1016.94
2018-08-03T08:09:36.693Z,1016.92
2018-08-03T08:10:36.659Z,1016.92
2018-08-03T08:11:36.637Z,1016.96
2018-08-03T08:12:36.617Z,1016.95
2018-08-03T08:13:36.598Z,1016.95
2018-08-03T08:14:36.583Z,1016.97
2018-08-03T08:15:36.645Z,1016.97
2018-08-03T08:16:36.562Z,1016.94
2018-08-03T08:17:36.528Z,1016.95
2018-08-03T08:18:36.509Z,1016.99
2018-08-03T08:19:36.504Z,1016.98
2018-08-03T08:20:36.479Z,1016.93
2018-08-03T08:21:36.456Z,1016.95
2018-08-03T08:22:36.436Z,1016.95
2018-08-03T08:23:36.417Z,1016.94
2018-08-03T08:24:36.417Z,1016.92
2018-08-03T08:25:36.380Z,1016.93
2018-08-03T08:26:36.361Z,1016.91
2018-08-03T08:27:36.352Z,1016.92
2018-08-03T08:28:36.339Z,1016.91
2018-08-03T08:29:36.317Z,1016.91
2018-08-03T08:30:36.287Z,1016.89
2018-08-03T08:31:36.350Z,1016.86
2018-08-03T08:32:36.255Z,1016.88
2018-08-03T08:33:36.239Z,1016.83
2018-08-03T08:34:36.223Z,1016.82
2018-08-03T08:35:36.207Z,1016.85
2018-08-03T08:36:36.205Z,1016.88
2018-08-03T08:37:36.762Z,1016.85
2018-08-03T08:38:36.154Z,1016.87
2018-08-03T08:39:36.133Z,1016.83
2018-08-03T08:40:36.120Z,1016.83
2018-08-03T08:41:36.103Z,1016.80
2018-08-03T08:42:36.076Z,1016.79
2018-08-03T08:43:36.097Z,1016.78
2018-08-03T08:44:36.052Z,1016.80
2018-08-03T08:45:36.025Z,1016.83
2018-08-03T08:46:36.005Z,1016.82
2018-08-03T08:47:35.999Z,1016.82
2018-08-03T08:48:35.997Z,1016.80
2018-08-03T08:49:35.967Z,1016.80
2018-08-03T08:50:35.931Z,1016.77
2018-08-03T08:51:35.917Z,1016.79
2018-08-03T08:52:35.911Z,1016.79
2018-08-03T08:53:35.878Z,1016.79
2018-08-03T08:54:35.888Z,1016.79
2018-08-03T08:55:35.848Z,1016.77
2018-08-03T08:56:35.835Z,1016.77
2018-08-03T08:57:35.831Z,1016.75
2018-08-03T08:58:35.798Z,1016.76
2018-08-03T08:59:35.830Z,1016.78
2018-08-03T09:00:35.767Z,1016.75
2018-08-03T09:01:35.744Z,1016.76
2018-08-03T09:02:35.725Z,1016.77
2018-08-03T09:03:35.710Z,1016.78
2018-08-03T09:04:35.709Z,1016.78
2018-08-03T09:05:35.687Z,1016.74
2018-08-03T09:06:35.655Z,1016.71
2018-08-03T09:07:35.669Z,1016.73
2018-08-03T09:08:35.637Z,1016.68
2018-08-03T09:09:35.612Z,1016.67
2018-08-03T09:10:35.593Z,1016.66
2018-08-03T09:11:35.570Z,1016.62
2018-08-03T09:12:35.558Z,1016.71
2018-08-03T09:13:35.547Z,1016.70
2018-08-03T09:14:35.528Z,1016.65
2018-08-03T09:15:35.507Z,1016.65
2018-08-03T09:16:35.482Z,1016.65
2018-08-03T09:17:35.489Z,1016.67
2018-08-03T09:18:35.465Z,1016.66
2018-08-03T09:19:35.431Z,1016.58
2018-08-03T09:20:35.422Z,1016.59
2018-08-03T09:21:35.423Z,1016.63
2018-08-03T09:22:35.388Z,1016.60
2018-08-03T09:23:35.372Z,1016.60
2018-08-03T09:24:35.348Z,1016.60
2018-08-03T09:25:35.335Z,1016.59
2018-08-03T09:26:35.318Z,1016.60
2018-08-03T09:27:35.295Z,1016.58
2018-08-03T09:28:35.289Z,1016.56
2018-08-03T09:29:35.278Z,1016.55
2018-08-03T09:30:35.260Z,1016.56
2018-08-03T09:31:35.246Z,1016.51
2018-08-03T09:32:35.221Z,1016.53
2018-08-03T09:33:35.195Z,1016.52
2018-08-03T09:34:35.189Z,1016.52
2018-08-03T09:35:35.225Z,1016.51
2018-08-03T09:36:35.176Z,1016.50
2018-08-03T09:37:35.137Z,1016.47
2018-08-03T09:38:35.122Z,1016.46
2018-08-03T09:39:35.106Z,1016.46
2018-08-03T09:40:35.082Z,1016.44
2018-08-03T09:41:35.065Z,1016.38
2018-08-03T09:42:35.055Z,1016.39
2018-08-03T09:43:35.786Z,1016.36
2018-08-03T09:44:35.020Z,1016.39
2018-08-03T09:45:35.009Z,1016.40
2018-08-03T09:46:34.989Z,1016.37
2018-08-03T09:47:34.981Z,1016.36
2018-08-03T09:48:34.990Z,1016.36
2018-08-03T09:49:34.939Z,1016.35
2018-08-03T09:50:34.929Z,1016.34
2018-08-03T09:51:34.917Z,1016.33
2018-08-03T09:52:34.912Z,1016.35
2018-08-03T09:53:34.879Z,1016.31
2018-08-03T09:54:34.912Z,1016.31
2018-08-03T09:55:34.839Z,1016.30
2018-08-03T09:56:34.830Z,1016.27
2018-08-03T09:57:34.822Z,1016.30
2018-08-03T09:58:34.812Z,1016.28
2018-08-03T09:59:34.783Z,1016.29
2018-08-03T10:00:34.778Z,1016.28
2018-08-03T10:01:34.773Z,1016.26
2018-08-03T10:02:34.754Z,1016.27
2018-08-03T10:03:34.710Z,1016.23
2018-08-03T10:04:34.703Z,1016.26
2018-08-03T10:05:34.683Z,1016.27
2018-08-03T10:06:34.684Z,1016.26
2018-08-03T10:07:34.649Z,1016.24
2018-08-03T10:08:34.634Z,1016.20
2018-08-03T10:09:34.619Z,1016.20
2018-08-03T10:10:34.615Z,1016.21
2018-08-03T10:11:34.602Z,1016.16
2018-08-03T10:12:34.570Z,1016.19
2018-08-03T10:13:34.556Z,1016.14
2018-08-03T10:14:34.546Z,1016.15
2018-08-03T10:15:34.540Z,1016.17
2018-08-03T10:16:34.501Z,1016.17
2018-08-03T10:17:34.493Z,1016.14
2018-08-03T10:18:34.472Z,1016.12
2018-08-03T10:19:34.486Z,1016.10
2018-08-03T10:20:34.441Z,1016.08
2018-08-03T10:21:34.433Z,1016.09
2018-08-03T10:22:34.409Z,1016.09
2018-08-03T10:23:34.392Z,1016.08
2018-08-03T10:24:34.407Z,1016.10
2018-08-03T10:25:34.371Z,1016.07
2018-08-03T10:26:34.375Z,1016.06
2018-08-03T10:27:34.334Z,1016.05
2018-08-03T10:28:34.322Z,1016.06
2018-08-03T10:29:34.333Z,1016.07
2018-08-03T10:30:34.283Z,1016.07
2018-08-03T10:31:34.275Z,1016.02
2018-08-03T10:32:34.264Z,1016.07
2018-08-03T10:33:34.243Z,1015.99
2018-08-03T10:34:34.226Z,1016.01
2018-08-03T10:35:34.209Z,1015.95
2018-08-03T10:36:34.202Z,1015.94
2018-08-03T10:37:34.191Z,1015.97
2018-08-03T10:38:34.173Z,1015.93
2018-08-03T10:39:34.164Z,1015.97
2018-08-03T10:40:34.130Z,1015.91
2018-08-03T10:41:34.121Z,1015.91
2018-08-03T10:42:34.140Z,1015.90
2018-08-03T10:43:34.120Z,1015.87
2018-08-03T10:44:34.078Z,1015.86
2018-08-03T10:45:34.057Z,1015.84
2018-08-03T10:46:34.062Z,1015.85
2018-08-03T10:47:34.057Z,1015.84
2018-08-03T10:48:34.048Z,1015.85
2018-08-03T10:49:34.010Z,1015.82
2018-08-03T10:50:33.989Z,1015.86
2018-08-03T10:51:33.975Z,1015.84
2018-08-03T10:52:33.949Z,1015.81
2018-08-03T10:53:33.949Z,1015.81
2018-08-03T10:54:33.925Z,1015.79
2018-08-03T10:55:33.917Z,1015.75
2018-08-03T10:56:33.910Z,1015.77
2018-08-03T10:57:33.879Z,1015.74
2018-08-03T10:58:33.868Z,1015.79
2018-08-03T10:59:33.850Z,1015.75
2018-08-03T11:00:33.842Z,1015.77
2018-08-03T11:01:33.850Z,1015.74
2018-08-03T11:02:33.810Z,1015.71
2018-08-03T11:03:33.792Z,1015.73
2018-08-03T11:04:33.775Z,1015.63
2018-08-03T11:05:33.758Z,1015.71
2018-08-03T11:06:33.748Z,1015.67
2018-08-03T11:07:33.726Z,1015.72
2018-08-03T11:08:33.721Z,1015.75
2018-08-03T11:09:33.698Z,1015.66
2018-08-03T11:10:33.699Z,1015.71
2018-08-03T11:11:33.697Z,1015.72
2018-08-03T11:12:33.665Z,1015.66
2018-08-03T11:13:33.653Z,1015.65
2018-08-03T11:14:33.628Z,1015.68
2018-08-03T11:15:33.616Z,1015.65
2018-08-03T11:16:33.596Z,1015.66
2018-08-03T11:17:33.584Z,1015.67
2018-08-03T11:18:33.566Z,1015.65
2018-08-03T11:19:33.567Z,1015.66
2018-08-03T11:20:33.544Z,1015.69
2018-08-03T11:21:33.525Z,1015.70
2018-08-03T11:22:33.527Z,1015.69
2018-08-03T11:23:33.498Z,1015.69
2018-08-03T11:24:33.485Z,1015.65
2018-08-03T11:25:33.465Z,1015.69
2018-08-03T11:26:33.456Z,1015.68
2018-08-03T11:27:33.437Z,1015.65
2018-08-03T11:28:33.427Z,1015.67
2018-08-03T11:29:33.435Z,1015.65
2018-08-03T11:30:33.395Z,1015.68
2018-08-03T11:31:33.384Z,1015.66
2018-08-03T11:32:33.366Z,1015.65
2018-08-03T11:33:33.363Z,1015.65
2018-08-03T11:34:33.338Z,1015.62
2018-08-03T11:35:33.325Z,1015.61
2018-08-03T11:36:33.309Z,1015.56
2018-08-03T11:37:33.293Z,1015.56
2018-08-03T11:38:33.284Z,1015.56
2018-08-03T11:39:33.283Z,1015.58
2018-08-03T11:40:33.273Z,1015.54
2018-08-03T11:41:33.234Z,1015.53
2018-08-03T11:42:33.230Z,1015.48
2018-08-03T11:43:33.220Z,1015.53
2018-08-03T11:44:33.227Z,1015.50
2018-08-03T11:45:33.185Z,1015.47
2018-08-03T11:46:33.162Z,1015.42
2018-08-03T11:47:33.158Z,1015.43
2018-08-03T11:48:33.139Z,1015.39
2018-08-03T11:49:33.122Z,1015.40
2018-08-03T11:50:33.111Z,1015.41
2018-08-03T11:51:33.102Z,1015.37
2018-08-03T11:52:33.101Z,1015.39
2018-08-03T11:53:33.078Z,1015.36
2018-08-03T11:54:33.054Z,1015.36
2018-08-03T11:55:33.041Z,1015.33
2018-08-03T11:56:33.023Z,1015.30
2018-08-03T11:57:33.034Z,1015.34
2018-08-03T11:58:32.999Z,1015.34
2018-08-03T11:59:32.978Z,1015.36
2018-08-03T12:00:32.970Z,1015.30
2018-08-03T12:01:32.950Z,1015.28
2018-08-03T12:02:32.969Z,1015.26
2018-08-03T12:03:32.959Z,1015.25
2018-08-03T12:04:32.906Z,1015.30
2018-08-03T12:05:32.893Z,1015.29